createdAt,value
2022-09-28T00:04:41.719Z,2.30
2022-09-28T00:09:44.029Z,2.20
2022-09-28T00:14:46.131Z,2.53
2022-09-28T00:19:48.357Z,2.35
2022-09-28T00:24:50.462Z,2.30
2022-09-28T00:29:52.559Z,2.58
2022-09-28T00:34:55.257Z,2.40
2022-09-28T00:39:57.355Z,2.58
2022-09-28T00:45:00.285Z,3.22
2022-09-28T00:50:11.031Z,3.05
2022-09-28T00:55:17.859Z,3.00
2022-09-28T01:00:20.037Z,3.28
2022-09-28T01:05:24.351Z,2.10
2022-09-28T01:10:29.159Z,1.30
2022-09-28T01:15:39.107Z,0.60
2022-09-28T01:21:01.803Z,0.47
2022-09-28T01:26:15.871Z,0.65
2022-09-28T01:31:19.434Z,0.50
2022-09-28T01:36:30.118Z,0.50
2022-09-28T01:41:36.626Z,0.60
2022-09-28T01:46:44.813Z,0.60
2022-09-28T01:51:57.787Z,0.40
2022-09-28T01:57:49.110Z,0.55
2022-09-28T02:02:58.480Z,0.43
2022-09-28T02:08:34.460Z,0.55
2022-09-28T02:13:42.745Z,0.40
2022-09-28T02:18:47.122Z,0.40
2022-09-28T02:23:58.422Z,0.40
2022-09-28T02:29:01.042Z,0.50
2022-09-28T02:34:03.218Z,0.38
2022-09-28T02:39:13.127Z,0.30
2022-09-28T02:44:18.686Z,0.40
2022-09-28T02:50:00.501Z,0.30
2022-09-28T02:55:14.745Z,0.30
2022-09-28T03:00:23.152Z,0.30
2022-09-28T03:06:14.501Z,0.40
2022-09-28T03:11:34.238Z,0.50
2022-09-28T03:16:37.415Z,0.67
2022-09-28T03:21:40.072Z,0.55
2022-09-28T03:26:42.392Z,0.70
2022-09-28T03:31:45.645Z,0.63
2022-09-28T03:36:47.944Z,0.50
2022-09-28T03:41:50.263Z,0.63
2022-09-28T03:46:54.648Z,0.50
2022-09-28T03:51:56.934Z,0.50
2022-09-28T03:57:00.152Z,0.40
2022-09-28T04:02:02.464Z,0.80
2022-09-28T04:07:04.754Z,0.70
2022-09-28T04:12:07.253Z,0.60
2022-09-28T04:17:09.635Z,0.55
2022-09-28T04:22:12.283Z,0.50
2022-09-28T04:27:33.202Z,0.50
2022-09-28T04:32:36.953Z,0.52
2022-09-28T04:37:40.396Z,0.68
2022-09-28T04:42:42.623Z,0.70
2022-09-28T04:47:44.788Z,0.80
2022-09-28T04:53:13.062Z,0.80
2022-09-28T04:58:15.231Z,0.63
2022-09-28T05:03:18.297Z,0.60
2022-09-28T05:08:47.343Z,0.70
2022-09-28T05:13:51.619Z,0.70
2022-09-28T05:18:56.692Z,0.90
2022-09-28T05:23:58.944Z,0.63
2022-09-28T05:29:01.857Z,1.20
2022-09-28T05:34:09.818Z,1.30
2022-09-28T05:39:12.039Z,1.40
2022-09-28T05:44:14.246Z,1.10
2022-09-28T05:49:17.267Z,1.08
2022-09-28T05:54:19.471Z,0.65
2022-09-28T05:59:22.462Z,0.50
2022-09-28T06:04:25.112Z,0.60
2022-09-28T06:09:27.222Z,0.70
2022-09-28T06:14:46.675Z,0.82
2022-09-28T06:19:49.099Z,0.63
2022-09-28T06:25:10.413Z,0.73
2022-09-28T06:30:14.542Z,0.65
2022-09-28T06:35:17.078Z,0.50
2022-09-28T06:40:20.075Z,0.52
2022-09-28T06:45:24.586Z,0.80
2022-09-28T06:50:47.581Z,0.70
2022-09-28T06:56:22.249Z,0.70
2022-09-28T07:01:25.016Z,0.75
2022-09-28T07:06:39.451Z,1.00
2022-09-28T07:12:10.281Z,0.98
2022-09-28T07:17:51.091Z,0.85
2022-09-28T07:23:12.126Z,1.17
2022-09-28T07:28:34.117Z,1.20
2022-09-28T07:33:54.012Z,1.30
2022-09-28T07:39:22.430Z,1.60
2022-09-28T07:44:25.198Z,1.48
2022-09-28T07:49:30.802Z,1.40
2022-09-28T07:54:52.192Z,1.15
2022-09-28T08:00:21.279Z,1.23
2022-09-28T08:05:23.510Z,0.90
2022-09-28T08:10:27.067Z,1.20
2022-09-28T08:15:36.995Z,1.40
2022-09-28T08:21:13.251Z,1.00
2022-09-28T08:26:16.561Z,1.63
2022-09-28T08:31:20.557Z,0.87
2022-09-28T08:36:58.279Z,1.73
2022-09-28T08:42:35.974Z,1.40
2022-09-28T08:48:11.126Z,1.35
2022-09-28T08:53:52.558Z,1.77
2022-09-28T08:59:14.088Z,1.63
2022-09-28T09:04:17.870Z,2.17
2022-09-28T09:09:41.868Z,1.95
2022-09-28T09:15:00.119Z,1.92
2022-09-28T09:20:05.320Z,1.80
2022-09-28T09:25:38.779Z,1.60
2022-09-28T09:30:51.877Z,1.67
2022-09-28T09:36:00.355Z,1.75
2022-09-28T09:41:37.107Z,1.85
2022-09-28T09:47:08.203Z,1.73
2022-09-28T09:57:57.996Z,1.90
2022-09-28T10:03:28.092Z,1.88
2022-09-28T10:13:57.874Z,2.15
2022-09-28T10:19:28.952Z,2.10
2022-09-28T10:24:54.891Z,1.65
2022-09-28T10:35:25.816Z,1.08
2022-09-28T10:40:40.849Z,1.33
2022-09-28T10:45:43.469Z,1.08
2022-09-28T10:51:03.796Z,1.40
2022-09-28T10:56:29.342Z,1.58
2022-09-28T11:01:37.903Z,1.10
2022-09-28T11:06:42.095Z,1.08
2022-09-28T11:11:47.292Z,1.10
2022-09-28T11:17:17.719Z,1.27
2022-09-28T11:22:31.549Z,1.27
2022-09-28T11:27:39.595Z,1.85
2022-09-28T11:32:44.494Z,1.15
2022-09-28T11:38:14.561Z,1.85
2022-09-28T11:44:08.038Z,1.60
2022-09-28T11:49:40.156Z,1.42
2022-09-28T11:54:52.257Z,1.60
2022-09-28T12:00:10.691Z,1.40
2022-09-28T12:05:36.896Z,1.50
2022-09-28T12:10:45.591Z,1.90
2022-09-28T12:16:32.780Z,1.30
2022-09-28T12:21:44.077Z,1.90
2022-09-28T12:27:07.457Z,1.60
2022-09-28T12:32:28.637Z,1.27
2022-09-28T12:37:39.952Z,1.17
2022-09-28T12:42:48.013Z,1.40
2022-09-28T12:48:24.235Z,1.30
2022-09-28T12:53:54.019Z,1.17
2022-09-28T12:59:11.446Z,1.10
2022-09-28T13:04:22.377Z,1.20
2022-09-28T13:09:26.737Z,1.42
2022-09-28T13:14:56.460Z,1.20
2022-09-28T13:20:13.151Z,1.27
2022-09-28T13:25:18.723Z,1.65
2022-09-28T13:30:21.148Z,1.23
2022-09-28T13:35:23.517Z,1.40
2022-09-28T13:41:03.695Z,1.20
2022-09-28T13:46:47.141Z,1.27
2022-09-28T13:52:09.543Z,1.42
2022-09-28T13:57:42.987Z,1.20
2022-09-28T14:02:51.946Z,1.55
2022-09-28T14:08:09.849Z,1.05
2022-09-28T14:13:12.336Z,1.10
2022-09-28T14:18:32.441Z,1.10
2022-09-28T14:23:59.849Z,1.20
2022-09-28T14:29:28.850Z,1.25
2022-09-28T14:34:34.331Z,1.10
2022-09-28T14:39:58.457Z,0.80
2022-09-28T14:45:06.614Z,1.30
2022-09-28T14:50:29.321Z,1.10
2022-09-28T14:55:55.457Z,1.17
2022-09-28T15:01:02.972Z,1.02
2022-09-28T15:06:05.197Z,1.00
2022-09-28T15:11:18.134Z,1.15
2022-09-28T15:16:24.199Z,0.98
2022-09-28T15:21:40.393Z,1.00
2022-09-28T15:26:48.335Z,1.00
2022-09-28T15:31:54.308Z,0.95
2022-09-28T15:36:56.900Z,0.88
2022-09-28T15:42:00.272Z,0.70
2022-09-28T15:47:24.927Z,1.00
2022-09-28T15:52:29.226Z,0.88
2022-09-28T15:57:40.018Z,1.20
2022-09-28T16:03:20.269Z,1.48
2022-09-28T16:08:37.007Z,0.90
2022-09-28T16:14:17.014Z,1.20
2022-09-28T16:19:32.041Z,0.80
2022-09-28T16:24:38.970Z,0.85
2022-09-28T16:29:45.034Z,0.80
2022-09-28T16:34:50.185Z,1.20
2022-09-28T16:39:52.269Z,1.07
2022-09-28T16:44:56.581Z,0.82
2022-09-28T16:49:58.783Z,0.98
2022-09-28T16:55:39.050Z,1.10
2022-09-28T17:00:37.893Z,1.00
2022-09-28T17:05:40.253Z,1.00
2022-09-28T17:11:13.545Z,0.80
2022-09-28T17:16:36.743Z,1.00
2022-09-28T17:21:44.450Z,0.98
2022-09-28T17:26:49.799Z,0.98
2022-09-28T17:31:52.194Z,1.00
2022-09-28T17:36:54.860Z,6.72
2022-09-28T17:41:56.980Z,21.23
2022-09-28T17:47:01.071Z,16.35
2022-09-28T17:52:05.100Z,12.23
2022-09-28T17:57:08.734Z,1.48
2022-09-28T18:02:11.755Z,2.75
2022-09-28T18:07:13.849Z,1.73
2022-09-28T18:12:15.978Z,1.73
2022-09-28T18:17:18.118Z,1.40
2022-09-28T18:22:20.269Z,1.20
2022-09-28T18:27:22.611Z,0.93
2022-09-28T18:32:24.873Z,1.27
2022-09-28T18:37:27.012Z,1.13
2022-09-28T18:42:29.240Z,0.95
2022-09-28T18:47:31.380Z,1.15
2022-09-28T18:52:36.860Z,1.00
2022-09-28T18:57:40.560Z,1.25
2022-09-28T19:02:42.926Z,1.08
2022-09-28T19:07:45.192Z,0.90
2022-09-28T19:12:47.375Z,0.90
2022-09-28T19:17:50.276Z,0.80
2022-09-28T19:22:52.414Z,0.98
2022-09-28T19:27:54.831Z,1.00
2022-09-28T19:32:56.983Z,0.70
2022-09-28T19:37:59.165Z,0.80
2022-09-28T19:43:01.861Z,1.20
2022-09-28T19:48:04.040Z,0.85
2022-09-28T19:53:07.441Z,0.85
2022-09-28T19:58:09.532Z,1.10
2022-09-28T20:03:11.649Z,1.00
2022-09-28T20:08:15.062Z,1.42
2022-09-28T20:13:17.317Z,1.10
2022-09-28T20:18:19.427Z,0.90
2022-09-28T20:23:21.722Z,0.88
2022-09-28T20:28:24.399Z,1.05
2022-09-28T20:33:28.833Z,1.00
2022-09-28T20:38:31.718Z,0.80
2022-09-28T20:43:34.996Z,0.80
2022-09-28T20:48:37.458Z,0.70
2022-09-28T20:53:41.243Z,0.70
2022-09-28T20:58:43.623Z,0.73
2022-09-28T21:03:57.461Z,0.63
2022-09-28T21:08:59.972Z,0.90
2022-09-28T21:14:05.837Z,1.00
2022-09-28T21:19:08.035Z,1.10
2022-09-28T21:24:10.268Z,1.00
2022-09-28T21:29:14.633Z,1.00
2022-09-28T21:34:19.542Z,0.60
2022-09-28T21:39:22.218Z,0.80
2022-09-28T21:44:24.320Z,0.98
2022-09-28T21:49:26.394Z,0.85
2022-09-28T21:54:29.005Z,1.00
2022-09-28T21:59:31.084Z,1.00
2022-09-28T22:04:33.186Z,1.10
2022-09-28T22:09:35.373Z,0.95
2022-09-28T22:14:37.673Z,1.00
2022-09-28T22:19:41.693Z,1.00
2022-09-28T22:24:43.822Z,1.10
2022-09-28T22:29:45.994Z,0.80
2022-09-28T22:34:48.024Z,0.90
2022-09-28T22:39:50.066Z,0.60
2022-09-28T22:44:52.081Z,0.80
2022-09-28T22:49:54.166Z,0.68
2022-09-28T22:54:56.239Z,0.90
2022-09-28T22:59:58.286Z,1.00
2022-09-28T23:05:00.376Z,0.75
2022-09-28T23:10:02.528Z,0.80
2022-09-28T23:15:06.086Z,0.70
2022-09-28T23:20:09.528Z,1.13
2022-09-28T23:25:11.587Z,0.98
2022-09-28T23:30:15.552Z,1.02
2022-09-28T23:35:17.673Z,1.05
2022-09-28T23:40:19.802Z,1.13
2022-09-28T23:45:21.895Z,1.10
2022-09-28T23:50:24.069Z,1.08
2022-09-28T23:55:26.155Z,0.98
